Time;durP1;ratioP1;P1;durP2;ratioP2;P2;SDS_P1;SDS_P2;PMS_P1;PMS_P2;Temp;Humidity;BMP_temperature;BMP_pressure;BME280_temperature;BME280_humidity;BME280_pressure;Samples;Min_cycle;Max_cycle;Signal;HPM_P1;HPM_P2
2022/06/27 00:00:38;;;;;;;9.23;3.78;;;;;;;27.81;51.87;101401.22;143723;592;47002;-72
2022/06/27 00:03:05;;;;;;;10.90;4.37;;;;;;;27.84;51.90;101397.88;143723;567;47010;-72
2022/06/27 00:05:31;;;;;;;8.40;4.10;;;;;;;27.83;52.05;101397.03;143723;756;47004;-73
2022/06/27 00:07:57;;;;;;;6.82;3.85;;;;;;;27.82;51.90;101392.63;143725;615;46006;-72
2022/06/27 00:10:24;;;;;;;5.90;4.47;;;;;;;27.82;51.30;101395.38;143721;581;47002;-73
2022/06/27 00:12:51;;;;;;;7.62;4.03;;;;;;;27.86;51.04;101394.78;143724;681;47010;-72
2022/06/27 00:15:17;;;;;;;8.25;4.45;;;;;;;27.87;50.62;101397.28;143721;573;47004;-72
2022/06/27 00:17:43;;;;;;;5.72;3.35;;;;;;;27.88;49.19;101379.59;143723;576;47006;-72
2022/06/27 00:20:11;;;;;;;7.10;3.62;;;;;;;27.89;48.89;101385.91;143723;591;47002;-72
2022/06/27 00:22:38;;;;;;;5.65;3.55;;;;;;;27.92;47.93;101379.81;143726;584;46011;-73
2022/06/27 00:25:05;;;;;;;4.72;3.45;;;;;;;27.95;47.88;101387.50;143721;607;47002;-73
2022/06/27 00:27:32;;;;;;;11.32;4.05;;;;;;;27.94;47.36;101380.31;143724;647;46006;-73
2022/06/27 00:29:58;;;;;;;6.22;3.65;;;;;;;27.94;48.02;101386.66;143729;590;46006;-72
2022/06/27 00:32:26;;;;;;;5.85;3.15;;;;;;;27.95;48.07;101377.25;143723;663;47010;-72
2022/06/27 00:34:54;;;;;;;8.32;3.53;;;;;;;27.96;48.63;101378.88;143718;593;47004;-72
2022/06/27 00:37:20;;;;;;;6.25;3.97;;;;;;;27.96;49.11;101369.81;143725;576;46006;-72
2022/06/27 00:39:47;;;;;;;6.00;3.67;;;;;;;27.97;49.62;101374.22;143726;582;47004;-72
2022/06/27 00:42:13;;;;;;;5.87;3.35;;;;;;;27.99;49.95;101371.94;143723;568;46010;-73
2022/06/27 00:44:42;;;;;;;6.10;3.67;;;;;;;27.97;49.85;101369.50;143723;593;47004;-72
2022/06/27 00:47:11;;;;;;;7.37;4.10;;;;;;;27.95;49.87;101354.34;143726;593;46006;-72
2022/06/27 00:49:38;;;;;;;10.30;3.90;;;;;;;27.98;49.68;101356.50;143724;581;47002;-72
2022/06/27 00:52:08;;;;;;;10.18;3.97;;;;;;;27.97;49.75;101360.41;143725;595;46022;-72
2022/06/27 00:54:37;;;;;;;8.88;3.85;;;;;;;27.99;49.34;101360.88;143723;588;47002;-73
2022/06/27 00:57:05;;;;;;;5.32;3.80;;;;;;;27.99;48.72;101360.88;143727;600;46006;-72
2022/06/27 00:59:32;;;;;;;5.90;4.07;;;;;;;27.97;49.03;101354.88;143725;568;47002;-72
2022/06/27 01:01:58;;;;;;;6.07;4.00;;;;;;;28.02;48.75;101357.53;143725;593;46008;-72
2022/06/27 01:04:25;;;;;;;7.70;3.67;;;;;;;28.02;48.90;101357.53;143723;687;47002;-73
2022/06/27 01:06:52;;;;;;;8.60;4.22;;;;;;;28.01;48.18;101350.38;143725;604;46007;-72
2022/06/27 01:09:22;;;;;;;8.13;4.20;;;;;;;28.05;48.10;101351.41;143726;705;47004;-72
2022/06/27 01:11:50;;;;;;;8.90;3.97;;;;;;;28.06;48.88;101355.00;143726;597;46926;-72
2022/06/27 01:14:18;;;;;;;6.60;4.18;;;;;;;28.04;48.91;101351.72;143724;680;46004;-72
2022/06/27 01:16:44;;;;;;;6.32;3.97;;;;;;;28.04;48.80;101348.97;143723;612;47006;-72
2022/06/27 01:19:13;;;;;;;5.18;3.78;;;;;;;28.03;48.50;101342.59;143726;663;47004;-72
2022/06/27 01:21:55;;;;;;;7.68;3.75;;;;;;;27.99;48.50;101336.03;143723;622;47010;-72
2022/06/27 01:24:24;;;;;;;7.45;3.35;;;;;;;27.99;48.40;101341.56;143722;609;47004;-73
2022/06/27 01:26:51;;;;;;;4.05;3.30;;;;;;;27.97;48.52;101335.56;143725;577;46006;-72
2022/06/27 01:29:18;;;;;;;8.35;3.12;;;;;;;27.96;48.98;101344.94;143724;592;47002;-72
2022/06/27 01:31:45;;;;;;;5.15;3.80;;;;;;;27.91;49.01;101340.31;143725;577;47010;-72
2022/06/27 01:34:13;;;;;;;5.53;3.33;;;;;;;27.88;49.13;101338.19;143723;589;47002;-72
2022/06/27 01:36:42;;;;;;;4.78;3.53;;;;;;;27.88;49.23;101340.94;143727;573;46006;-72
2022/06/27 01:39:14;;;;;;;7.53;4.00;;;;;;;27.88;49.45;101337.34;143724;683;47004;-72
2022/06/27 01:42:01;;;;;;;7.30;3.95;;;;;;;27.84;49.46;101334.38;143722;583;47010;-72
2022/06/27 01:44:30;;;;;;;7.45;4.10;;;;;;;27.80;48.95;101336.09;143721;584;47002;-74
2022/06/27 01:47:11;;;;;;;6.20;3.70;;;;;;;27.78;48.56;101341.09;143726;746;46006;-72
2022/06/27 01:49:38;;;;;;;5.32;3.33;;;;;;;27.76;48.67;101344.16;143724;583;47002;-72
2022/06/27 01:52:07;;;;;;;7.12;3.80;;;;;;;27.74;48.84;101340.03;143725;590;47008;-72
2022/06/27 01:54:34;;;;;;;6.30;3.58;;;;;;;27.73;48.63;101338.41;143723;572;47004;-72
2022/06/27 01:57:01;;;;;;;7.50;3.80;;;;;;;27.73;48.61;101346.69;143725;568;46006;-73
2022/06/27 01:59:30;;;;;;;6.47;3.55;;;;;;;27.72;48.71;101351.41;143727;648;46005;-72
2022/06/27 02:01:58;;;;;;;5.85;4.07;;;;;;;27.66;49.12;101353.41;143725;677;46010;-72
2022/06/27 02:04:26;;;;;;;6.78;4.57;;;;;;;27.59;49.91;101358.47;143723;589;47002;-72
2022/06/27 02:06:53;;;;;;;7.90;4.37;;;;;;;27.57;50.66;101349.69;143724;572;46924;-72
2022/06/27 02:09:20;;;;;;;6.12;4.00;;;;;;;27.54;50.47;101347.50;143723;600;47010;-72
2022/06/27 02:11:49;;;;;;;6.70;3.53;;;;;;;27.48;50.74;101346.78;143725;573;46024;-72
2022/06/27 02:14:16;;;;;;;5.93;3.78;;;;;;;27.41;50.48;101339.97;143721;621;47005;-72
2022/06/27 02:16:43;;;;;;;7.72;3.80;;;;;;;27.43;50.56;101348.75;143724;762;46006;-72
2022/06/27 02:19:14;;;;;;;5.45;3.55;;;;;;;27.43;49.93;101337.72;143723;633;47002;-72
2022/06/27 02:21:42;;;;;;;4.65;3.42;;;;;;;27.45;47.99;101341.81;143723;573;47011;-72
2022/06/27 02:24:09;;;;;;;5.55;3.37;;;;;;;27.43;46.90;101341.31;143723;574;47004;-72
2022/06/27 02:26:36;;;;;;;5.53;3.25;;;;;;;27.42;46.57;101338.84;143723;590;46006;-72
2022/06/27 02:29:03;;;;;;;7.20;2.97;;;;;;;27.45;46.68;101332.75;143725;606;47004;-73
2022/06/27 02:31:31;;;;;;;3.95;3.45;;;;;;;27.28;46.99;101342.34;143723;567;47010;-73
2022/06/27 02:33:58;;;;;;;6.15;3.25;;;;;;;27.20;47.63;101346.59;143721;587;47004;-72
2022/06/27 02:36:46;;;;;;;4.45;3.33;;;;;;;27.35;47.56;101345.56;143725;579;46007;-73
2022/06/27 02:39:18;;;;;;;5.22;3.17;;;;;;;27.44;48.21;101342.97;143723;607;47004;-74
2022/06/27 02:41:47;;;;;;;6.57;3.50;;;;;;;27.47;47.76;101347.09;143725;574;46010;-72
2022/06/27 02:44:14;;;;;;;8.10;4.37;;;;;;;27.43;47.92;101354.28;143721;611;47004;-72
2022/06/27 02:46:41;;;;;;;10.05;4.87;;;;;;;27.41;46.99;101360.09;143725;593;46923;-71
2022/06/27 02:49:09;;;;;;;8.77;6.43;;;;;;;27.36;47.71;101360.16;143726;574;46004;-73
2022/06/27 02:52:01;;;;;;;10.85;7.93;;;;;;;27.35;48.11;101364.03;143725;567;46010;-73
2022/06/27 02:54:54;;;;;;;7.10;4.25;;;;;;;27.34;47.99;101371.50;143727;604;46004;-73
2022/06/27 02:57:57;;;;;;;6.45;4.20;;;;;;;27.33;48.49;101372.63;143722;601;47003;-73
2022/06/27 03:00:30;;;;;;;4.70;3.95;;;;;;;27.35;47.22;101373.16;143724;567;47004;-72
2022/06/27 03:02:59;;;;;;;6.32;4.10;;;;;;;27.34;47.29;101377.03;143724;714;47010;-72
2022/06/27 03:05:26;;;;;;;305.52;179.77;;;;;;;27.32;47.72;101373.75;143723;616;47003;-72
2022/06/27 03:07:53;;;;;;;158.68;101.00;;;;;;;27.32;47.58;101378.44;143727;572;46006;-72
2022/06/27 03:10:21;;;;;;;33.55;20.98;;;;;;;27.26;47.55;101372.16;143723;567;47002;-73
2022/06/27 03:12:47;;;;;;;15.35;9.13;;;;;;;27.24;48.08;101377.97;143726;601;46008;-72
2022/06/27 03:15:14;;;;;;;10.85;5.55;;;;;;;27.27;47.82;101376.56;143722;610;47004;-72
2022/06/27 03:17:40;;;;;;;8.30;3.78;;;;;;;27.19;47.78;101372.53;143724;568;46923;-73
2022/06/27 03:20:07;;;;;;;5.05;3.58;;;;;;;27.21;47.64;101369.47;143726;573;46002;-72
2022/06/27 03:22:33;;;;;;;11.02;3.75;;;;;;;27.21;47.39;101381.34;143725;588;46010;-73
2022/06/27 03:25:00;;;;;;;5.10;2.97;;;;;;;27.21;47.02;101378.56;143721;566;47004;-72
2022/06/27 03:27:26;;;;;;;5.37;3.33;;;;;;;27.19;47.98;101383.56;143723;602;46009;-71
2022/06/27 03:29:53;;;;;;;4.78;3.20;;;;;;;27.20;47.73;101387.13;143725;726;47004;-72
2022/06/27 03:32:19;;;;;;;4.97;3.35;;;;;;;27.18;47.54;101383.88;143728;592;46925;-73
2022/06/27 03:34:45;;;;;;;5.10;3.10;;;;;;;27.17;47.96;101384.97;143722;607;47006;-72
2022/06/27 03:37:12;;;;;;;7.00;3.67;;;;;;;27.15;47.66;101392.72;143724;613;46008;-72
2022/06/27 03:39:38;;;;;;;7.68;4.18;;;;;;;27.14;47.77;101388.31;143723;612;47004;-72
2022/06/27 03:42:05;;;;;;;8.45;3.80;;;;;;;27.18;47.81;101383.88;143723;616;46926;-71
2022/06/27 03:44:31;;;;;;;7.87;3.70;;;;;;;27.19;46.87;101391.00;143721;659;47006;-72
2022/06/27 03:46:58;;;;;;;4.87;3.30;;;;;;;27.20;47.04;101396.22;143723;573;46008;-72
2022/06/27 03:52:08;;;;;;;8.70;3.15;;;;;;;27.22;46.21;101395.94;143725;609;46018;-74
2022/06/27 03:54:34;;;;;;;5.47;3.10;;;;;;;27.25;46.92;101403.63;143719;583;47006;-73
2022/06/27 03:57:01;;;;;;;7.28;3.53;;;;;;;27.24;46.49;101405.56;143724;655;47008;-72
2022/06/27 03:59:27;;;;;;;7.37;3.17;;;;;;;27.30;46.31;101411.81;143723;591;47004;-72
2022/06/27 04:01:54;;;;;;;7.87;3.25;;;;;;;27.31;46.02;101404.38;143723;593;47012;-72
2022/06/27 04:04:20;;;;;;;5.40;3.33;;;;;;;27.33;45.96;101411.25;143725;617;46018;-73
2022/06/27 04:06:46;;;;;;;8.32;3.12;;;;;;;27.37;45.33;101412.28;143724;615;46008;-72
2022/06/27 04:09:13;;;;;;;8.52;2.85;;;;;;;27.39;45.14;101409.22;143724;610;47004;-73
2022/06/27 04:11:39;;;;;;;9.95;3.00;;;;;;;27.42;45.34;101419.69;143724;594;46012;-72
2022/06/27 04:14:06;;;;;;;8.20;3.75;;;;;;;27.48;45.87;101418.50;143723;592;47004;-72
2022/06/27 04:16:32;;;;;;;7.07;3.28;;;;;;;27.47;45.94;101413.28;143726;568;46008;-72
2022/06/27 04:18:59;;;;;;;6.47;3.12;;;;;;;27.53;46.05;101415.69;143724;597;47004;-72
2022/06/27 04:21:25;;;;;;;6.15;3.17;;;;;;;27.56;46.40;101416.22;143727;573;46010;-72
2022/06/27 04:23:52;;;;;;;8.02;3.15;;;;;;;27.57;45.98;101418.66;143722;661;47006;-72
2022/06/27 04:26:18;;;;;;;4.35;2.90;;;;;;;27.55;46.30;101412.63;143725;586;46009;-71
2022/06/27 04:28:45;;;;;;;8.10;3.20;;;;;;;27.53;46.77;101417.63;143723;567;47004;-71
2022/06/27 04:31:12;;;;;;;6.43;3.40;;;;;;;27.53;46.26;101423.16;143723;568;46012;-72
2022/06/27 04:33:38;;;;;;;4.07;3.25;;;;;;;27.54;46.26;101422.84;143721;604;47006;-72
2022/06/27 04:36:05;;;;;;;4.50;3.28;;;;;;;27.55;45.61;101418.12;143726;581;46008;-73
2022/06/27 04:38:31;;;;;;;5.72;3.33;;;;;;;27.63;45.62;101411.97;143728;582;46004;-72
2022/06/27 04:40:58;;;;;;;8.45;3.97;;;;;;;27.67;45.10;101412.19;143725;573;46010;-72
2022/06/27 04:43:26;;;;;;;5.65;3.75;;;;;;;27.68;45.17;101414.66;143722;586;47006;-72
2022/06/27 04:45:53;;;;;;;6.93;3.75;;;;;;;27.75;45.50;101418.97;143726;670;46008;-71
2022/06/27 04:48:20;;;;;;;6.82;3.53;;;;;;;27.82;45.29;101416.66;143725;591;47005;-72
2022/06/27 04:50:47;;;;;;;5.43;2.95;;;;;;;27.87;45.18;101421.28;143725;625;46013;-72
2022/06/27 04:53:14;;;;;;;5.80;3.65;;;;;;;27.86;44.46;101417.72;143720;573;47006;-72
2022/06/27 04:55:41;;;;;;;5.53;3.42;;;;;;;27.84;44.68;101425.47;143724;591;46008;-71
2022/06/27 04:58:08;;;;;;;7.05;3.50;;;;;;;27.91;44.86;101433.37;143724;597;47004;-72
2022/06/27 05:00:34;;;;;;;6.12;3.75;;;;;;;28.03;44.68;101430.97;143725;621;46012;-72
2022/06/27 05:03:01;;;;;;;6.78;3.72;;;;;;;28.10;44.41;101433.37;143725;638;46013;-71
2022/06/27 05:05:27;;;;;;;7.90;3.75;;;;;;;28.13;44.88;101433.63;143725;579;46009;-70
2022/06/27 05:07:56;;;;;;;7.32;3.28;;;;;;;28.20;45.35;101435.16;143723;566;47004;-71
2022/06/27 05:10:22;;;;;;;8.77;4.07;;;;;;;28.20;45.22;101436.00;143724;583;47012;-72
2022/06/27 05:12:48;;;;;;;8.60;4.00;;;;;;;28.19;44.83;101444.56;143722;592;47006;-70
2022/06/27 05:15:15;;;;;;;7.55;3.50;;;;;;;28.17;44.06;101444.88;143725;580;46008;-70
2022/06/27 05:17:43;;;;;;;7.95;3.37;;;;;;;28.21;43.98;101445.91;143723;597;47004;-70
2022/06/27 05:20:10;;;;;;;7.30;3.85;;;;;;;28.27;44.40;101443.87;143722;603;47012;-70
2022/06/27 05:22:38;;;;;;;8.70;4.60;;;;;;;28.32;44.72;101445.72;143723;598;47004;-71
2022/06/27 05:25:05;;;;;;;9.65;4.05;;;;;;;28.33;44.83;101447.37;143724;620;46008;-70
2022/06/27 05:27:34;;;;;;;7.18;4.22;;;;;;;28.39;45.12;101440.66;143723;582;47004;-70
2022/06/27 05:30:01;;;;;;;6.93;4.30;;;;;;;28.42;45.28;101440.84;143725;573;46023;-70
2022/06/27 05:32:27;;;;;;;8.57;3.87;;;;;;;28.48;45.41;101441.59;143722;588;47006;-71
2022/06/27 05:34:53;;;;;;;9.23;4.53;;;;;;;28.52;44.93;101447.31;143727;603;46004;-71
2022/06/27 05:37:20;;;;;;;9.57;4.78;;;;;;;28.53;44.82;101443.44;143725;645;47006;-71
2022/06/27 05:39:47;;;;;;;7.62;4.85;;;;;;;28.43;45.22;101439.75;143725;627;46012;-70
2022/06/27 05:42:13;;;;;;;9.40;4.72;;;;;;;28.46;45.36;101441.06;143724;570;47007;-72
2022/06/27 05:44:40;;;;;;;11.95;5.60;;;;;;;28.47;46.38;101444.66;143726;573;46008;-72
2022/06/27 05:47:07;;;;;;;8.30;4.85;;;;;;;28.52;46.30;101439.03;143727;618;47006;-70
2022/06/27 05:49:34;;;;;;;9.05;4.90;;;;;;;28.56;46.79;101443.66;143724;579;47010;-70
2022/06/27 05:52:00;;;;;;;9.15;5.57;;;;;;;28.51;46.23;101453.97;143724;572;47006;-71
2022/06/27 05:54:28;;;;;;;9.35;5.53;;;;;;;28.28;46.41;101460.16;143726;596;46008;-70
2022/06/27 05:56:55;;;;;;;7.05;4.65;;;;;;;28.40;46.09;101453.34;143723;595;47004;-71
2022/06/27 05:59:23;;;;;;;9.15;4.75;;;;;;;28.50;46.57;101447.63;143724;615;46925;-71
2022/06/27 06:01:51;;;;;;;8.43;5.20;;;;;;;28.60;46.13;101444.69;143722;586;47006;-71
2022/06/27 06:04:18;;;;;;;10.10;4.68;;;;;;;28.68;46.39;101445.12;143724;623;46009;-72
2022/06/27 06:06:44;;;;;;;9.75;5.10;;;;;;;28.74;46.62;101447.50;143726;585;47004;-71
2022/06/27 06:09:12;;;;;;;12.10;5.25;;;;;;;28.64;49.40;101444.91;143722;616;47012;-70
2022/06/27 06:11:38;;;;;;;7.50;4.55;;;;;;;28.58;49.63;101444.19;143724;740;47004;-69
2022/06/27 06:14:05;;;;;;;12.10;6.90;;;;;;;28.64;49.32;101444.91;143723;575;46008;-70
2022/06/27 06:16:31;;;;;;;12.80;8.88;;;;;;;28.74;49.18;101452.22;143724;619;47004;-70
2022/06/27 06:18:59;;;;;;;10.57;4.95;;;;;;;28.80;48.81;101455.72;143726;591;46012;-70
2022/06/27 06:21:26;;;;;;;7.55;4.65;;;;;;;28.85;47.58;101453.66;143722;594;47006;-69
2022/06/27 06:23:53;;;;;;;10.18;4.75;;;;;;;28.89;47.13;101456.63;143727;613;46008;-71
2022/06/27 06:26:20;;;;;;;8.85;4.90;;;;;;;28.89;46.87;101456.63;143724;578;47004;-71
2022/06/27 06:28:51;;;;;;;13.00;7.82;;;;;;;28.75;46.92;101456.63;143725;569;46925;-69
2022/06/27 06:31:24;;;;;;;6.20;3.85;;;;;;;28.74;46.11;101457.75;143722;587;47006;-70
2022/06/27 06:33:55;;;;;;;7.50;4.35;;;;;;;28.75;47.37;101462.16;143726;613;46009;-70
2022/06/27 06:36:23;;;;;;;9.13;4.72;;;;;;;28.79;49.16;101465.13;143725;597;47002;-69
2022/06/27 06:38:51;;;;;;;6.47;4.30;;;;;;;28.88;47.63;101455.00;143726;576;46012;-70
2022/06/27 06:41:18;;;;;;;11.95;5.20;;;;;;;28.87;49.05;101458.88;143723;703;47006;-70
2022/06/27 06:43:48;;;;;;;9.23;4.57;;;;;;;28.87;47.95;101456.12;143725;599;46008;-70
2022/06/27 06:46:14;;;;;;;6.28;4.60;;;;;;;28.81;45.93;101455.41;143725;640;47006;-71
2022/06/27 06:48:41;;;;;;;14.85;8.13;;;;;;;28.92;48.55;101461.56;143723;573;46012;-69
2022/06/27 06:51:08;;;;;;;10.05;4.85;;;;;;;28.89;47.83;101449.16;143725;573;47004;-70
2022/06/27 06:53:38;;;;;;;9.95;6.78;;;;;;;28.94;46.80;101450.22;143724;605;46924;-70
2022/06/27 06:56:05;;;;;;;9.30;5.05;;;;;;;28.72;48.95;101452.47;143726;595;47004;-71
2022/06/27 06:58:32;;;;;;;10.13;5.10;;;;;;;28.82;49.14;101451.50;143724;586;47012;-71
2022/06/27 07:00:58;;;;;;;8.73;5.10;;;;;;;28.88;49.96;101460.53;143724;606;47006;-68
2022/06/27 07:03:25;;;;;;;9.45;4.60;;;;;;;28.84;50.16;101454.78;143722;567;49897;-67
2022/06/27 07:05:51;;;;;;;10.88;6.05;;;;;;;28.96;50.33;101464.53;143724;742;47004;-66
2022/06/27 07:08:18;;;;;;;7.55;5.22;;;;;;;28.85;49.57;101463.91;143725;585;46926;-67
2022/06/27 07:10:44;;;;;;;9.32;4.50;;;;;;;28.63;49.53;101467.31;143723;583;47010;-67
2022/06/27 07:13:12;;;;;;;8.13;4.78;;;;;;;28.52;50.42;101466.66;143729;578;46008;-69
2022/06/27 07:15:38;;;;;;;9.40;4.62;;;;;;;28.53;50.40;101458.09;143725;581;47004;-68
2022/06/27 07:18:05;;;;;;;12.95;5.53;;;;;;;28.67;50.09;101463.66;143726;640;46021;-67
2022/06/27 07:20:33;;;;;;;10.10;5.03;;;;;;;28.77;50.16;101467.37;143721;709;47006;-66
2022/06/27 07:22:59;;;;;;;8.02;4.37;;;;;;;28.75;49.14;101473.22;143726;584;46924;-67
2022/06/27 07:25:26;;;;;;;8.52;5.18;;;;;;;28.69;50.51;101471.63;143727;568;47002;-67
2022/06/27 07:27:53;;;;;;;7.20;4.37;;;;;;;28.58;48.76;101471.81;143727;574;46012;-68
2022/06/27 07:30:20;;;;;;;7.05;4.55;;;;;;;28.59;48.80;101467.09;143722;589;47006;-67
2022/06/27 07:32:47;;;;;;;9.23;4.57;;;;;;;28.57;48.90;101470.19;143728;599;46008;-67
2022/06/27 07:35:16;;;;;;;7.37;4.30;;;;;;;28.64;48.75;101469.78;143726;588;47002;-66
2022/06/27 07:37:51;;;;;;;7.90;4.47;;;;;;;28.66;48.83;101475.00;143726;675;46926;-68
2022/06/27 07:40:23;;;;;;;5.45;3.80;;;;;;;28.93;47.45;101481.75;143721;574;47007;-67
2022/06/27 07:42:52;;;;;;;8.10;4.55;;;;;;;28.78;46.67;101469.00;143727;584;46008;-67
2022/06/27 07:45:18;;;;;;;7.50;4.87;;;;;;;28.80;47.33;101475.88;143728;604;46008;-67
2022/06/27 07:47:48;;;;;;;9.90;4.80;;;;;;;28.87;47.63;101475.47;143727;573;46012;-67
2022/06/27 07:53:13;;;;;;;5.80;4.20;;;;;;;29.02;45.77;101471.59;143726;576;46008;-67
2022/06/27 07:55:53;;;;;;;8.27;4.32;;;;;;;29.03;45.75;101476.81;143731;669;46004;-70
2022/06/27 07:58:30;;;;;;;7.40;4.20;;;;;;;29.20;45.92;101467.91;143725;591;47006;-67
2022/06/27 08:00:58;;;;;;;5.95;3.72;;;;;;;29.14;45.12;101462.81;143722;711;47006;-70
2022/06/27 08:03:38;;;;;;;8.00;4.40;;;;;;;29.38;45.02;101470.91;143727;575;46009;-68
2022/06/27 08:06:14;;;;;;;9.55;4.30;;;;;;;29.34;45.27;101464.31;143727;567;47004;-68
2022/06/27 08:08:43;;;;;;;6.90;4.20;;;;;;;29.30;45.60;101458.59;143725;582;46926;-68
2022/06/27 08:11:12;;;;;;;7.55;3.80;;;;;;;29.50;46.11;101464.88;143723;751;47006;-68
2022/06/27 08:13:40;;;;;;;8.32;4.47;;;;;;;29.63;44.98;101466.78;143727;580;46008;-70
2022/06/27 08:16:08;;;;;;;7.62;3.60;;;;;;;29.72;43.36;101466.06;143727;592;47004;-69
2022/06/27 08:18:38;;;;;;;5.18;4.05;;;;;;;29.49;43.39;101449.38;143724;616;47008;-70
2022/06/27 08:21:08;;;;;;;6.90;3.50;;;;;;;29.37;42.52;101452.66;143723;608;47006;-69
2022/06/27 08:23:37;;;;;;;6.20;3.85;;;;;;;29.32;42.69;101461.88;143727;576;46008;-67
2022/06/27 08:26:08;;;;;;;8.93;3.80;;;;;;;29.40;44.49;101452.06;143727;641;47004;-69
2022/06/27 08:28:36;;;;;;;6.82;3.50;;;;;;;29.44;42.31;101455.84;143727;572;46012;-68
2022/06/27 08:31:05;;;;;;;4.93;3.37;;;;;;;29.52;42.80;101453.47;143723;583;47006;-67
2022/06/27 08:33:32;;;;;;;4.85;3.62;;;;;;;29.50;40.22;101453.78;143727;606;46009;-67
2022/06/27 08:36:00;;;;;;;7.10;3.40;;;;;;;29.65;40.04;101456.22;143725;592;47004;-70
2022/06/27 08:38:28;;;;;;;4.47;2.83;;;;;;;29.75;40.33;101457.09;143725;574;47012;-68
2022/06/27 08:40:56;;;;;;;5.97;3.58;;;;;;;29.71;40.95;101462.44;143725;568;47007;-76
2022/06/27 08:43:23;;;;;;;7.25;4.05;;;;;;;29.65;40.63;101461.75;143726;754;46008;-68
2022/06/27 08:45:51;;;;;;;6.65;3.22;;;;;;;29.61;39.92;101448.84;143730;591;47006;-66
2022/06/27 08:48:19;;;;;;;4.57;3.20;;;;;;;29.47;39.46;101448.88;143726;570;46013;-69
2022/06/27 08:50:48;;;;;;;5.03;3.25;;;;;;;29.57;41.11;101450.59;143725;578;47004;-69
2022/06/27 08:53:16;;;;;;;7.07;3.80;;;;;;;29.68;41.29;101437.34;143727;587;46008;-69
2022/06/27 08:55:47;;;;;;;5.18;3.20;;;;;;;29.73;39.59;101438.06;143726;573;47006;-68
2022/06/27 08:58:15;;;;;;;6.00;3.40;;;;;;;29.69;40.15;101447.28;143725;584;47012;-69
2022/06/27 09:00:45;;;;;;;5.37;2.90;;;;;;;29.75;38.37;101448.78;143724;679;47006;-68
2022/06/27 09:03:19;;;;;;;4.60;3.00;;;;;;;29.89;37.57;101435.75;143726;576;46009;-70
2022/06/27 09:06:00;;;;;;;4.25;3.20;;;;;;;29.66;38.18;101443.19;143726;580;47006;-69
2022/06/27 09:08:28;;;;;;;3.85;3.10;;;;;;;29.78;37.16;101450.94;143727;625;46012;-68
2022/06/27 09:10:56;;;;;;;4.62;2.62;;;;;;;29.78;34.89;101443.47;143725;608;47004;-69
2022/06/27 09:13:25;;;;;;;3.97;3.20;;;;;;;30.01;35.35;101437.16;143726;663;46008;-68
2022/06/27 09:16:09;;;;;;;4.00;2.80;;;;;;;29.90;36.54;101431.84;143728;567;46010;-68
2022/06/27 09:18:37;;;;;;;5.28;3.30;;;;;;;29.84;36.91;101438.62;143727;623;46029;-72
2022/06/27 09:21:10;;;;;;;3.67;2.72;;;;;;;29.67;38.22;101432.94;143724;608;47006;-73
2022/06/27 09:23:53;;;;;;;4.53;2.87;;;;;;;29.87;37.73;101437.19;143726;587;46923;-72
2022/06/27 09:26:25;;;;;;;5.95;3.17;;;;;;;30.08;37.93;101427.28;143727;577;47002;-69
2022/06/27 09:29:04;;;;;;;4.85;3.10;;;;;;;30.07;37.79;101433.16;143725;606;47012;-74
2022/06/27 09:31:45;;;;;;;4.05;3.40;;;;;;;30.18;38.19;101423.44;143726;590;47004;-74
2022/06/27 09:34:21;;;;;;;4.28;2.90;;;;;;;30.44;37.01;101422.81;143728;592;46008;-72
2022/06/27 09:36:57;;;;;;;5.12;2.75;;;;;;;30.50;35.67;101415.16;143728;602;47006;-73
2022/06/27 09:39:39;;;;;;;6.07;3.00;;;;;;;30.64;34.82;101428.94;143726;623;46012;-73
2022/06/27 09:42:13;;;;;;;4.28;2.67;;;;;;;30.59;35.97;101424.34;143724;650;47006;-74
2022/06/27 09:44:42;;;;;;;5.57;2.95;;;;;;;30.39;36.01;101420.16;143727;615;46008;-76
2022/06/27 09:47:35;;;;;;;9.35;2.90;;;;;;;30.49;35.16;101407.97;143726;600;47005;-80
2022/06/27 09:50:03;;;;;;;3.80;2.92;;;;;;;30.54;36.08;101416.13;143728;592;46026;-79
2022/06/27 09:52:29;;;;;;;4.82;3.03;;;;;;;30.55;37.04;101410.31;143726;566;47004;-74
2022/06/27 09:54:56;;;;;;;4.87;3.30;;;;;;;30.60;37.42;101414.91;143726;593;47008;-77
2022/06/27 09:57:23;;;;;;;5.80;2.97;;;;;;;30.83;37.34;101418.44;143726;568;47004;-75
2022/06/27 09:59:51;;;;;;;5.65;3.45;;;;;;;31.00;37.33;101420.47;143725;576;47012;-76
2022/06/27 10:02:19;;;;;;;5.65;2.78;;;;;;;30.95;37.41;101414.25;143725;618;47005;-74
2022/06/27 10:04:47;;;;;;;5.30;3.08;;;;;;;31.05;36.67;101404.81;143727;638;46008;-74
2022/06/27 10:07:15;;;;;;;6.40;3.55;;;;;;;31.08;37.53;101406.91;143730;654;46004;-75
2022/06/27 10:09:42;;;;;;;5.95;3.70;;;;;;;31.08;37.19;101401.38;143725;625;47012;-78
2022/06/27 10:12:28;;;;;;;4.80;3.30;;;;;;;31.05;37.53;101399.25;143723;584;47006;-73
2022/06/27 10:15:37;;;;;;;3.60;2.55;;;;;;;30.89;35.88;101399.69;143727;606;46008;-73
2022/06/27 10:18:03;;;;;;;4.62;3.37;;;;;;;30.98;37.25;101400.53;143722;642;48004;-74
2022/06/27 10:20:36;;;;;;;5.50;3.47;;;;;;;30.91;36.47;101399.37;143726;572;46925;-76
2022/06/27 10:23:26;;;;;;;6.50;3.03;;;;;;;30.88;37.86;101395.31;143726;598;47006;-73
2022/06/27 10:25:54;;;;;;;8.00;3.33;;;;;;;31.03;36.80;101396.00;143726;672;46009;-76
2022/06/27 10:28:22;;;;;;;9.63;5.30;;;;;;;30.91;37.48;101385.50;143724;612;47004;-83
2022/06/27 10:30:54;;;;;;;4.15;3.47;;;;;;;30.82;36.55;101385.47;143727;654;46026;-75
2022/06/27 10:33:39;;;;;;;6.47;3.80;;;;;;;30.89;36.69;101377.50;143722;594;47006;-76
2022/06/27 10:36:16;;;;;;;7.10;3.58;;;;;;;31.10;37.66;101376.91;143727;612;47008;-73
2022/06/27 10:38:53;;;;;;;4.87;3.40;;;;;;;31.34;37.70;101370.94;143727;599;47002;-74
2022/06/27 10:41:36;;;;;;;8.15;3.50;;;;;;;31.45;37.63;101357.56;143726;586;47013;-75
2022/06/27 10:44:04;;;;;;;7.32;3.58;;;;;;;31.27;37.11;101363.09;143727;591;46010;-72
2022/06/27 10:46:41;;;;;;;5.22;3.90;;;;;;;31.26;37.87;101367.00;143726;613;46009;-75
2022/06/27 10:49:18;;;;;;;9.88;3.85;;;;;;;31.29;37.80;101369.13;143727;614;47006;-69
2022/06/27 10:51:44;;;;;;;7.07;4.25;;;;;;;31.29;37.39;101363.59;143723;632;47006;-70
2022/06/27 10:54:11;;;;;;;10.35;4.50;;;;;;;31.37;37.57;101361.16;143726;639;47004;-75
2022/06/27 10:56:58;;;;;;;5.05;3.97;;;;;;;31.30;36.37;101372.75;143727;599;46008;-71
2022/06/27 10:59:53;;;;;;;6.50;3.45;;;;;;;31.41;35.69;101365.72;191262;57;50701;-73
2022/06/27 11:02:21;;;;;;;5.00;3.47;;;;;;;31.50;36.06;101360.16;143692;636;76404;-72
2022/06/27 11:04:48;;;;;;;7.03;4.20;;;;;;;31.59;35.83;101354.63;143723;578;48002;-72
2022/06/27 11:07:16;;;;;;;7.72;3.95;;;;;;;31.72;36.94;101359.22;143727;620;46006;-74
2022/06/27 11:09:47;;;;;;;5.45;4.30;;;;;;;31.89;37.07;101354.78;143731;573;46002;-72
2022/06/27 11:12:27;;;;;;;8.07;3.83;;;;;;;31.99;36.98;101359.16;143725;574;47008;-70
2022/06/27 11:15:00;;;;;;;8.00;4.65;;;;;;;31.90;37.36;101348.06;143686;627;52004;-70
2022/06/27 11:17:42;;;;;;;10.10;3.97;;;;;;;31.84;37.38;101347.44;143727;667;46007;-71
2022/06/27 11:20:25;;;;;;;8.20;3.97;;;;;;;31.97;36.54;101350.34;143726;614;47004;-74
2022/06/27 11:22:58;;;;;;;7.28;4.15;;;;;;;31.82;37.08;101337.81;143726;662;46010;-73
2022/06/27 11:25:27;;;;;;;4.23;3.57;;;;;;;31.78;37.56;101334.84;143726;596;47002;-73
2022/06/27 11:27:56;;;;;;;6.18;4.12;;;;;;;31.67;38.59;101334.38;143725;610;47000;-73
2022/06/27 11:33:25;;;;;;;7.25;4.10;;;;;;;31.84;38.31;101338.31;143729;577;46004;-75
2022/06/27 11:35:54;;;;;;;6.87;3.90;;;;;;;31.91;38.71;101330.25;143722;613;47004;-72
2022/06/27 11:38:46;;;;;;;4.87;4.18;;;;;;;31.78;39.57;101322.94;143727;656;46006;-71
2022/06/27 11:41:15;;;;;;;6.62;4.20;;;;;;;31.84;39.24;101321.63;143729;599;47002;-72
2022/06/27 11:43:53;;;;;;;8.48;4.05;;;;;;;31.86;38.63;101320.16;143726;580;47010;-75